Time;durP1;ratioP1;P1;durP2;ratioP2;P2;SDS_P1;SDS_P2;PMS_P1;PMS_P2;Temp;Humidity;BMP_temperature;BMP_pressure;BME280_temperature;BME280_humidity;BME280_pressure;Samples;Min_cycle;Max_cycle;Signal;HPM_P1;HPM_P2
2024/02/01 00:01:48;;;;;;;108.40;56.85;;;1.80;99.90;;;;;;5014489;28;19963;-74
2024/02/01 00:04:13;;;;;;;;;;;2.00;99.90;;;;;;5032488;28;20398;-74
2024/02/01 00:06:40;;;;;;;103.50;52.60;;;1.80;99.90;;;;;;5031737;28;19933;-74
2024/02/01 00:09:05;;;;;;;100.60;55.83;;;1.80;99.90;;;;;;5014039;28;20021;-75
2024/02/01 00:11:31;;;;;;;;;;;1.80;99.90;;;;;;5032435;28;20075;-74
2024/02/01 00:13:56;;;;;;;76.28;40.72;;;1.80;99.90;;;;;;5032026;28;19909;-75
2024/02/01 00:16:22;;;;;;;;;;;1.90;99.90;;;;;;5014570;28;20064;-75
2024/02/01 00:18:49;;;;;;;74.20;39.15;;;1.90;99.90;;;;;;5014032;28;19905;-74
2024/02/01 00:21:17;;;;;;;75.50;40.95;;;2.00;99.90;;;;;;5031715;28;20104;-75
2024/02/01 00:23:43;;;;;;;89.20;45.28;;;2.10;99.90;;;;;;5014235;28;20041;-75
2024/02/01 00:26:09;;;;;;;85.85;46.10;;;2.10;99.90;;;;;;5031980;28;20017;-75
2024/02/01 00:28:35;;;;;;;83.28;42.90;;;2.10;99.90;;;;;;5032164;28;20053;-75
2024/02/01 00:31:00;;;;;;;;;;;2.00;99.90;;;;;;5032481;28;20064;-75
2024/02/01 00:33:26;;;;;;;88.35;44.80;;;1.90;99.90;;;;;;5033215;28;19935;-75
2024/02/01 00:35:51;;;;;;;;;;;1.90;99.90;;;;;;5014578;28;20440;-75
2024/02/01 00:38:17;;;;;;;77.93;42.08;;;1.90;99.90;;;;;;5013194;28;19905;-74
2024/02/01 00:40:42;;;;;;;;;;;2.00;99.90;;;;;;5031384;28;20033;-75
2024/02/01 00:43:08;;;;;;;87.43;43.28;;;2.00;99.90;;;;;;5030728;28;19928;-75
2024/02/01 00:45:34;;;;;;;;;;;1.90;99.90;;;;;;5013574;28;20033;-75
2024/02/01 00:47:59;;;;;;;85.22;40.15;;;1.90;99.90;;;;;;5012993;28;19905;-75
2024/02/01 00:50:25;;;;;;;;;;;2.00;99.90;;;;;;5030503;28;20025;-75
2024/02/01 00:52:50;;;;;;;91.38;46.60;;;2.10;99.90;;;;;;5030904;28;19905;-75
2024/02/01 00:55:16;;;;;;;;;;;2.00;99.90;;;;;;5013714;28;20037;-75
2024/02/01 00:57:41;;;;;;;81.45;44.92;;;2.00;99.90;;;;;;5031072;28;19905;-75
2024/02/01 01:00:07;;;;;;;;;;;1.90;99.90;;;;;;5031208;28;20033;-75
2024/02/01 01:02:33;;;;;;;67.35;37.40;;;1.90;99.90;;;;;;5030731;28;19916;-74
2024/02/01 01:04:58;;;;;;;;;;;1.90;99.90;;;;;;5031304;28;20060;-75
2024/02/01 01:07:24;;;;;;;73.47;41.42;;;1.90;99.90;;;;;;5030810;28;19966;-75
2024/02/01 01:09:52;;;;;;;;;;;1.90;99.90;;;;;;5031341;28;20098;-76
2024/02/01 01:12:21;;;;;;;64.47;35.75;;;1.80;99.90;;;;;;5008108;28;20400;-74
2024/02/01 01:14:47;;;;;;;62.22;35.13;;;1.80;99.90;;;;;;5012552;28;20029;-75
2024/02/01 01:17:13;;;;;;;;;;;1.80;99.90;;;;;;5030248;28;20086;-74
2024/02/01 01:19:38;;;;;;;71.97;38.65;;;1.80;99.90;;;;;;5030132;28;20340;-74
2024/02/01 01:22:04;;;;;;;;;;;2.00;99.90;;;;;;5030442;28;20500;-74
2024/02/01 01:24:29;;;;;;;61.55;34.25;;;2.10;99.90;;;;;;5030616;28;19909;-74
2024/02/01 01:26:55;;;;;;;;;;;2.00;99.90;;;;;;5030735;28;20034;-75
2024/02/01 01:29:20;;;;;;;53.97;30.95;;;2.00;99.90;;;;;;5030538;28;19908;-75
2024/02/01 01:31:46;;;;;;;;;;;2.00;99.90;;;;;;5012915;28;20052;-75
2024/02/01 01:34:12;;;;;;;61.28;34.85;;;2.00;99.90;;;;;;5012725;28;19913;-75
2024/02/01 01:36:38;;;;;;;56.90;31.73;;;2.10;99.90;;;;;;5030299;28;20072;-75
2024/02/01 01:39:03;;;;;;;;;;;2.20;99.90;;;;;;5030458;28;20025;-75
2024/02/01 01:41:29;;;;;;;59.10;33.95;;;2.20;99.90;;;;;;5029668;28;19909;-74
2024/02/01 01:43:54;;;;;;;;;;;2.20;99.90;;;;;;5012559;28;20158;-75
2024/02/01 01:46:20;;;;;;;62.67;33.95;;;2.20;99.90;;;;;;5012369;28;19915;-74
2024/02/01 01:48:46;;;;;;;;;;;2.10;99.90;;;;;;5012389;28;20031;-75
2024/02/01 01:51:13;;;;;;;55.08;30.92;;;2.00;99.90;;;;;;5012025;28;19908;-75
2024/02/01 01:53:40;;;;;;;61.03;35.50;;;2.00;99.90;;;;;;5029771;28;20087;-75
2024/02/01 01:56:06;;;;;;;58.60;34.80;;;2.10;99.90;;;;;;5012629;28;20025;-75
2024/02/01 01:58:35;;;;;;;73.10;39.00;;;2.00;99.90;;;;;;5013117;28;20109;-75
2024/02/01 02:01:01;;;;;;;61.13;35.33;;;2.30;99.90;;;;;;5012782;28;20061;-75
2024/02/01 02:03:27;;;;;;;56.67;34.35;;;2.40;99.90;;;;;;5030340;28;20053;-74
2024/02/01 02:05:53;;;;;;;;;;;2.30;99.90;;;;;;5031446;28;20037;-75
2024/02/01 02:08:19;;;;;;;52.38;30.92;;;2.10;99.90;;;;;;5030967;28;19916;-75
2024/02/01 02:10:44;;;;;;;;;;;2.00;99.90;;;;;;5030999;28;20022;-75
2024/02/01 02:13:11;;;;;;;50.92;30.27;;;2.10;99.90;;;;;;5031103;28;19996;-75
2024/02/01 02:15:37;;;;;;;48.58;29.70;;;2.00;99.90;;;;;;5013602;28;20025;-75
2024/02/01 02:18:09;;;;;;;;;;;2.00;99.90;;;;;;5013498;28;20493;-75
2024/02/01 02:20:40;;;;;;;59.15;34.22;;;2.00;99.90;;;;;;5031159;28;19909;-75
2024/02/01 02:23:07;;;;;;;62.15;33.78;;;2.10;99.90;;;;;;5013636;28;20072;-75
2024/02/01 02:25:33;;;;;;;57.20;34.83;;;2.20;99.90;;;;;;5031048;28;20017;-75
2024/02/01 02:27:59;;;;;;;;;;;2.20;99.90;;;;;;5013573;28;20033;-75
2024/02/01 02:30:24;;;;;;;56.05;33.67;;;2.10;99.90;;;;;;5030798;28;20259;-75
2024/02/01 02:32:50;;;;;;;;;;;2.10;99.90;;;;;;5031421;28;20072;-76
2024/02/01 02:35:16;;;;;;;64.80;33.78;;;2.10;99.90;;;;;;5013904;28;20014;-75
2024/02/01 02:37:52;;;;;;;65.60;35.88;;;2.20;99.90;;;;;;5013542;28;20033;-75
2024/02/01 02:40:21;;;;;;;58.47;32.60;;;2.30;99.90;;;;;;5031420;28;20060;-75
2024/02/01 02:42:48;;;;;;;51.53;29.45;;;2.30;99.90;;;;;;5031733;28;20115;-75
2024/02/01 02:45:14;;;;;;;53.08;31.08;;;2.20;99.90;;;;;;5031762;28;20525;-75
2024/02/01 02:47:40;;;;;;;56.08;34.17;;;2.10;99.90;;;;;;5032311;28;20033;-74
2024/02/01 02:50:06;;;;;;;;;;;2.30;99.90;;;;;;5014561;28;20021;-75
2024/02/01 02:52:32;;;;;;;53.13;31.45;;;2.20;99.90;;;;;;5011843;28;19909;-75
2024/02/01 02:54:58;;;;;;;51.60;29.80;;;2.20;99.90;;;;;;5011634;28;20536;-75
2024/02/01 02:57:24;;;;;;;;;;;2.20;99.90;;;;;;5029979;28;20029;-75
2024/02/01 02:59:49;;;;;;;64.43;35.58;;;2.20;99.90;;;;;;5029564;28;20012;-75
2024/02/01 03:02:15;;;;;;;;;;;2.20;99.90;;;;;;5029816;28;20433;-75
2024/02/01 03:04:40;;;;;;;67.70;37.10;;;2.10;99.90;;;;;;5028502;28;19909;-75
2024/02/01 03:07:08;;;;;;;;;;;2.10;99.90;;;;;;5028988;28;20029;-75
2024/02/01 03:09:34;;;;;;;;;;;2.10;99.90;;;;;;5029249;28;20459;-75
2024/02/01 03:12:00;;;;;;;61.75;36.42;;;2.10;99.90;;;;;;5005942;28;19913;-75
2024/02/01 03:14:25;;;;;;;;;;;2.20;99.90;;;;;;5013351;28;20044;-75
2024/02/01 03:16:51;;;;;;;63.58;34.92;;;2.20;99.90;;;;;;5014863;28;19959;-75
2024/02/01 03:19:17;;;;;;;;;;;2.20;99.90;;;;;;5033105;28;20029;-75
2024/02/01 03:21:42;;;;;;;66.38;37.17;;;2.20;99.90;;;;;;5032653;28;20304;-75
2024/02/01 03:24:08;;;;;;;;;;;2.30;99.90;;;;;;5015510;28;20140;-75
2024/02/01 03:26:34;;;;;;;61.10;34.50;;;2.20;99.90;;;;;;5016133;28;20015;-75
2024/02/01 03:29:00;;;;;;;;;;;2.20;99.90;;;;;;5015380;28;20124;-75
2024/02/01 03:31:33;;;;;;;61.03;33.60;;;2.20;99.90;;;;;;5014653;28;19909;-75
2024/02/01 03:34:01;;;;;;;60.08;31.30;;;2.10;99.90;;;;;;5014474;28;20040;-75
2024/02/01 03:36:28;;;;;;;55.83;32.28;;;2.10;99.90;;;;;;5014383;28;20128;-74
2024/02/01 03:38:53;;;;;;;56.15;32.42;;;2.10;99.90;;;;;;5014264;28;20498;-74
2024/02/01 03:41:19;;;;;;;;;;;2.20;99.90;;;;;;5031857;28;20087;-75
2024/02/01 03:43:44;;;;;;;65.28;38.05;;;2.20;99.90;;;;;;5033599;28;19925;-76
2024/02/01 03:46:14;;;;;;;;;;;2.30;99.90;;;;;;5034172;28;20029;-76
2024/02/01 03:48:40;;;;;;;59.25;34.17;;;2.20;99.90;;;;;;5015834;28;20705;-75
2024/02/01 03:51:07;;;;;;;;;;;2.20;99.90;;;;;;5033116;28;20116;-75
2024/02/01 03:53:35;;;;;;;63.20;36.38;;;2.10;99.90;;;;;;5015789;28;19905;-76
2024/02/01 03:56:03;;;;;;;60.05;33.25;;;2.20;99.90;;;;;;5033742;28;20083;-75
2024/02/01 03:58:31;;;;;;;70.18;37.15;;;2.10;99.90;;;;;;5032901;28;20026;-75
2024/02/01 04:00:59;;;;;;;72.97;39.50;;;2.10;99.90;;;;;;5033112;28;20626;-76
2024/02/01 04:03:24;;;;;;;74.45;41.00;;;2.10;99.90;;;;;;5032815;28;20041;-75
2024/02/01 04:05:50;;;;;;;;;;;2.20;99.90;;;;;;5033138;28;20530;-75
2024/02/01 04:08:19;;;;;;;66.40;37.05;;;2.20;99.90;;;;;;5014995;28;19908;-75
2024/02/01 04:10:45;;;;;;;63.55;35.58;;;2.20;99.90;;;;;;5032815;28;20033;-76
2024/02/01 04:13:11;;;;;;;65.03;36.25;;;2.20;99.90;;;;;;5032902;28;20077;-75
2024/02/01 04:15:37;;;;;;;63.60;37.38;;;2.20;99.90;;;;;;5015195;28;20095;-75
2024/02/01 04:18:04;;;;;;;;;;;2.30;99.90;;;;;;5033443;28;20052;-75
2024/02/01 04:20:36;;;;;;;66.65;35.55;;;2.20;99.90;;;;;;5033172;28;19908;-75
2024/02/01 04:23:01;;;;;;;62.00;35.22;;;2.10;99.90;;;;;;5032900;28;20044;-75
2024/02/01 04:25:27;;;;;;;;;;;2.10;99.90;;;;;;5014351;28;20025;-75
2024/02/01 04:27:54;;;;;;;62.78;35.83;;;2.20;99.90;;;;;;5014825;28;19999;-75
2024/02/01 04:30:20;;;;;;;58.45;35.85;;;2.10;99.90;;;;;;5014992;28;20061;-76
2024/02/01 04:32:47;;;;;;;70.38;41.55;;;2.00;99.90;;;;;;5014790;28;20033;-75
2024/02/01 04:35:14;;;;;;;57.72;35.72;;;2.10;99.90;;;;;;5014232;28;20498;-75
2024/02/01 04:37:43;;;;;;;53.80;32.95;;;2.10;99.90;;;;;;5012930;28;20077;-75
2024/02/01 04:40:11;;;;;;;62.03;36.10;;;2.10;99.90;;;;;;5031113;28;20018;-75
2024/02/01 04:42:40;;;;;;;61.33;36.00;;;2.10;99.90;;;;;;5031132;28;20179;-74
2024/02/01 04:45:08;;;;;;;61.60;36.63;;;2.10;99.90;;;;;;5013243;28;20025;-75
2024/02/01 04:47:37;;;;;;;63.08;35.80;;;2.20;99.90;;;;;;5031605;28;20037;-75
2024/02/01 04:50:04;;;;;;;57.17;33.97;;;2.20;99.90;;;;;;5031348;28;20030;-76
2024/02/01 04:52:31;;;;;;;64.25;35.17;;;2.20;99.90;;;;;;5012974;28;20052;-75
2024/02/01 04:54:59;;;;;;;64.95;35.60;;;2.20;99.90;;;;;;5029474;28;20029;-75
2024/02/01 04:57:25;;;;;;;62.08;34.65;;;2.20;99.90;;;;;;5014205;28;20022;-75
2024/02/01 04:59:51;;;;;;;;;;;2.30;99.90;;;;;;5015721;28;20038;-75
2024/02/01 05:02:16;;;;;;;63.72;36.15;;;2.30;99.90;;;;;;5031018;28;19924;-75
2024/02/01 05:04:42;;;;;;;;;;;2.20;99.90;;;;;;5012272;28;20387;-75
2024/02/01 05:07:08;;;;;;;56.13;32.63;;;2.30;99.90;;;;;;5031041;28;19916;-75
2024/02/01 05:09:35;;;;;;;;;;;2.10;99.90;;;;;;5029913;28;20724;-75
2024/02/01 05:12:01;;;;;;;58.20;32.77;;;2.10;99.90;;;;;;5028330;28;19963;-75
2024/02/01 05:14:27;;;;;;;67.78;40.03;;;2.10;99.90;;;;;;5030824;28;20030;-74
2024/02/01 05:16:53;;;;;;;;;;;2.10;99.90;;;;;;5013619;28;20056;-75
2024/02/01 05:19:20;;;;;;;76.38;39.90;;;2.20;99.90;;;;;;5029159;28;19912;-74
2024/02/01 05:21:45;;;;;;;66.85;38.60;;;2.10;99.90;;;;;;5013079;28;20136;-75
2024/02/01 05:24:14;;;;;;;;;;;2.10;99.90;;;;;;5013685;28;20534;-75
2024/02/01 05:26:46;;;;;;;75.90;43.15;;;2.20;99.90;;;;;;5030869;28;19905;-75
2024/02/01 05:29:15;;;;;;;71.25;40.55;;;2.20;99.90;;;;;;5022418;28;20112;-75
2024/02/01 05:31:47;;;;;;;70.32;40.83;;;2.10;99.90;;;;;;5026052;28;20108;-75
2024/02/01 05:34:14;;;;;;;61.70;36.28;;;2.10;99.90;;;;;;5012907;28;20036;-75
2024/02/01 05:36:40;;;;;;;90.10;44.90;;;2.10;99.90;;;;;;5024394;28;20049;-74
2024/02/01 05:39:05;;;;;;;;;;;2.20;99.90;;;;;;5014539;28;20127;-76
2024/02/01 05:41:31;;;;;;;74.88;40.53;;;2.20;99.90;;;;;;4995921;28;19956;-75
2024/02/01 05:43:57;;;;;;;;;;;2.40;99.90;;;;;;4993685;28;20524;-75
2024/02/01 05:46:22;;;;;;;67.80;40.10;;;2.40;99.90;;;;;;4999586;28;19916;-75
2024/02/01 05:48:48;;;;;;;;;;;2.30;99.90;;;;;;5013369;28;20036;-74
2024/02/01 05:51:14;;;;;;;98.75;51.40;;;2.30;99.90;;;;;;5030690;28;19909;-75
2024/02/01 05:53:40;;;;;;;94.15;51.30;;;2.50;99.90;;;;;;5030573;28;20163;-75
2024/02/01 05:56:05;;;;;;;;;;;2.40;99.90;;;;;;5013721;28;20116;-75
2024/02/01 05:58:31;;;;;;;89.20;51.40;;;2.40;99.90;;;;;;5013285;28;19911;-75
2024/02/01 06:00:57;;;;;;;;;;;2.30;99.90;;;;;;5013465;28;20087;-75
2024/02/01 06:03:23;;;;;;;75.90;42.80;;;2.30;99.90;;;;;;5030800;28;20388;-76
2024/02/01 06:05:49;;;;;;;;;;;2.30;99.90;;;;;;5011378;28;20029;-73
2024/02/01 06:08:20;;;;;;;86.95;49.67;;;2.20;99.90;;;;;;4995231;28;19919;-75
2024/02/01 06:10:46;;;;;;;123.57;68.32;;;2.20;99.90;;;;;;5008051;28;20057;-75
2024/02/01 06:13:12;;;;;;;;;;;2.10;99.90;;;;;;5010616;28;20528;-75
2024/02/01 06:15:37;;;;;;;117.97;61.08;;;2.10;99.90;;;;;;5022012;28;20397;-74
2024/02/01 06:18:03;;;;;;;;;;;2.20;99.90;;;;;;5024756;28;20490;-75
2024/02/01 06:20:29;;;;;;;109.50;56.90;;;2.20;99.90;;;;;;5029966;28;20373;-75
2024/02/01 06:22:55;;;;;;;;;;;2.20;99.90;;;;;;5030150;28;20065;-75
2024/02/01 06:25:21;;;;;;;94.80;50.78;;;2.30;99.90;;;;;;5012188;28;20003;-75
2024/02/01 06:27:46;;;;;;;;;;;2.30;99.90;;;;;;5012550;28;20037;-75
2024/02/01 06:30:12;;;;;;;88.35;47.50;;;2.30;99.90;;;;;;5012285;28;19909;-74
2024/02/01 06:32:39;;;;;;;;;;;2.30;99.90;;;;;;5010793;28;20491;-75
2024/02/01 06:35:16;;;;;;;74.70;39.35;;;2.20;99.90;;;;;;5010433;28;19905;-75
2024/02/01 06:37:51;;;;;;;78.95;44.22;;;2.20;99.90;;;;;;5010685;28;20044;-75
2024/02/01 06:43:27;;;;;;;84.72;46.30;;;2.20;99.90;;;;;;5010138;28;20077;-75
2024/02/01 06:46:18;;;;;;;78.35;44.05;;;2.10;99.90;;;;;;5009933;28;20044;-75
2024/02/01 06:48:46;;;;;;;72.47;40.97;;;2.20;99.90;;;;;;4991397;28;20148;-74
2024/02/01 06:51:21;;;;;;;77.03;43.08;;;2.30;99.90;;;;;;4992184;28;20037;-75
2024/02/01 06:53:57;;;;;;;82.35;43.05;;;2.20;99.90;;;;;;4992053;28;20044;-75
2024/02/01 06:59:29;;;;;;;71.82;40.38;;;2.20;99.90;;;;;;5009970;28;20037;-75
2024/02/01 07:02:06;;;;;;;80.35;43.65;;;2.20;99.90;;;;;;4992314;28;20037;-75
2024/02/01 07:04:42;;;;;;;89.88;44.90;;;2.20;99.90;;;;;;4992432;28;20030;-75
2024/02/01 07:07:18;;;;;;;72.90;39.90;;;2.30;99.90;;;;;;5010435;28;20033;-75
2024/02/01 07:09:57;;;;;;;74.50;41.30;;;2.30;99.90;;;;;;4992268;28;20044;-75
2024/02/01 07:12:40;;;;;;;75.25;41.20;;;2.30;99.90;;;;;;4991788;28;20517;-75
2024/02/01 07:17:58;;;;;;;79.13;39.17;;;2.40;99.90;;;;;;5008784;28;20029;-76
2024/02/01 07:20:46;;;;;;;79.03;42.78;;;2.50;99.90;;;;;;5008885;28;20026;-75
2024/02/01 07:26:00;;;;;;;77.90;43.03;;;2.50;99.90;;;;;;5009519;28;20087;-75
2024/02/01 07:58:38;;;;;;;65.97;39.15;;;2.90;99.90;;;;;;5009809;28;20533;-75
2024/02/01 08:01:14;;;;;;;67.13;39.58;;;3.00;99.90;;;;;;5012075;28;20117;-75
2024/02/01 08:03:56;;;;;;;68.32;40.45;;;3.00;99.90;;;;;;4995990;28;20525;-76
2024/02/01 08:09:12;;;;;;;76.57;45.13;;;3.10;99.90;;;;;;5015369;28;20044;-75
2024/02/01 08:11:46;;;;;;;74.38;43.80;;;3.20;99.90;;;;;;5013328;28;20026;-76
2024/02/01 08:14:13;;;;;;;76.32;45.38;;;3.20;99.90;;;;;;5012677;28;20036;-75
2024/02/01 08:16:39;;;;;;;79.35;44.42;;;3.20;99.90;;;;;;5012434;28;20034;-75
2024/02/01 08:19:08;;;;;;;;;;;3.20;99.90;;;;;;4995250;28;20392;-75
2024/02/01 08:21:37;;;;;;;77.50;44.25;;;3.20;99.90;;;;;;4989492;28;20000;-74
2024/02/01 08:24:05;;;;;;;89.72;48.40;;;3.20;99.90;;;;;;5012279;28;20033;-76
2024/02/01 08:26:37;;;;;;;90.88;48.67;;;3.20;99.90;;;;;;4994732;28;20111;-75
2024/02/01 08:29:15;;;;;;;87.93;50.03;;;3.20;99.90;;;;;;5012383;28;20026;-75
2024/02/01 08:31:41;;;;;;;93.15;49.85;;;3.10;99.90;;;;;;4994464;28;20028;-75
2024/02/01 08:34:07;;;;;;;;;;;3.20;99.90;;;;;;5012470;28;20030;-75
2024/02/01 08:36:34;;;;;;;83.80;47.33;;;3.10;99.90;;;;;;4994776;28;19955;-75
2024/02/01 08:39:00;;;;;;;82.45;49.33;;;3.10;99.90;;;;;;4994652;28;20387;-75
2024/02/01 08:41:35;;;;;;;;;;;3.20;99.90;;;;;;5012526;28;20037;-75
2024/02/01 08:44:02;;;;;;;90.25;51.95;;;3.10;99.90;;;;;;5010782;28;19928;-75
2024/02/01 08:46:28;;;;;;;82.65;48.92;;;3.10;99.90;;;;;;5012202;28;20029;-75
2024/02/01 08:48:53;;;;;;;;;;;3.20;99.90;;;;;;5012467;28;20033;-75
2024/02/01 08:51:19;;;;;;;82.18;49.15;;;3.10;99.90;;;;;;5010600;28;20541;-75
2024/02/01 08:53:45;;;;;;;;;;;3.30;99.90;;;;;;5012593;28;20038;-75
2024/02/01 08:56:12;;;;;;;100.45;55.67;;;3.40;99.90;;;;;;5012308;28;19948;-75
2024/02/01 08:58:38;;;;;;;86.57;52.25;;;3.50;99.90;;;;;;5012200;28;20026;-75
2024/02/01 09:01:04;;;;;;;;;;;3.40;99.90;;;;;;5012635;28;20034;-75
2024/02/01 09:03:30;;;;;;;86.93;47.80;;;3.50;99.90;;;;;;4994802;28;19917;-75
2024/02/01 09:06:06;;;;;;;76.50;48.05;;;3.60;99.90;;;;;;5012584;28;20021;-75
2024/02/01 09:08:40;;;;;;;115.28;65.00;;;3.80;99.90;;;;;;5012817;28;20026;-75
2024/02/01 09:11:11;;;;;;;78.18;43.03;;;3.90;99.90;;;;;;4994718;28;20026;-76
2024/02/01 09:13:47;;;;;;;65.50;39.10;;;4.10;99.90;;;;;;5013606;28;20084;-75
2024/02/01 09:16:21;;;;;;;69.63;38.20;;;4.20;99.90;;;;;;5014569;28;20029;-76
2024/02/01 09:18:47;;;;;;;74.00;43.70;;;4.40;99.90;;;;;;4997343;28;20063;-76
2024/02/01 09:21:14;;;;;;;64.32;38.90;;;4.50;99.90;;;;;;5012301;28;20027;-74
2024/02/01 09:23:39;;;;;;;72.50;42.63;;;4.50;99.90;;;;;;5012267;28;20092;-75
2024/02/01 09:26:08;;;;;;;;;;;4.60;99.90;;;;;;4994990;28;20446;-75
2024/02/01 09:28:34;;;;;;;74.88;43.97;;;4.80;99.90;;;;;;4994207;28;20299;-75
2024/02/01 09:31:00;;;;;;;;;;;4.70;99.90;;;;;;4994100;28;20037;-75
2024/02/01 09:33:31;;;;;;;69.88;41.03;;;4.60;99.90;;;;;;4992952;28;20281;-74
2024/02/01 09:35:56;;;;;;;66.60;39.35;;;4.70;99.90;;;;;;4993219;28;20026;-74
2024/02/01 09:38:24;;;;;;;74.63;41.97;;;4.70;99.90;;;;;;5010702;28;20514;-75
2024/02/01 09:40:49;;;;;;;70.75;44.17;;;4.80;99.90;;;;;;5010943;28;20349;-75
2024/02/01 09:43:22;;;;;;;;;;;4.80;99.90;;;;;;4993905;28;20057;-75
2024/02/01 09:45:52;;;;;;;63.97;38.97;;;4.80;99.90;;;;;;4993349;28;19917;-75
2024/02/01 09:48:19;;;;;;;73.30;43.83;;;4.70;99.90;;;;;;5011087;28;20057;-75
2024/02/01 09:50:54;;;;;;;64.97;39.30;;;4.70;99.90;;;;;;5010586;28;20088;-75
2024/02/01 09:53:24;;;;;;;63.58;37.70;;;4.80;99.90;;;;;;4993129;28;20037;-75
2024/02/01 09:55:51;;;;;;;67.15;41.05;;;4.80;99.90;;;;;;5010435;28;20026;-74
2024/02/01 09:58:18;;;;;;;62.10;39.10;;;5.00;99.90;;;;;;5010255;28;20107;-75
2024/02/01 10:00:44;;;;;;;64.10;39.90;;;5.00;99.90;;;;;;5010247;28;20060;-74
2024/02/01 10:03:13;;;;;;;62.35;37.95;;;5.10;99.90;;;;;;4992353;28;20048;-75
2024/02/01 10:05:40;;;;;;;58.58;35.95;;;5.20;99.90;;;;;;4992535;28;20022;-75
2024/02/01 10:08:16;;;;;;;60.70;37.72;;;5.30;99.90;;;;;;4992630;28;20041;-75
2024/02/01 10:10:44;;;;;;;57.80;33.47;;;5.50;99.90;;;;;;5010003;28;20050;-75
2024/02/01 10:13:14;;;;;;;59.22;36.55;;;5.60;99.90;;;;;;5010039;28;20513;-75
2024/02/01 10:15:46;;;;;;;60.58;35.40;;;5.60;99.90;;;;;;5010133;28;20022;-75
2024/02/01 10:18:23;;;;;;;65.90;37.20;;;5.60;99.90;;;;;;5010000;28;20507;-75
2024/02/01 10:20:53;;;;;;;56.00;35.75;;;5.50;99.90;;;;;;4992222;28;20022;-74
2024/02/01 10:23:19;;;;;;;59.10;36.50;;;5.50;99.90;;;;;;4991360;28;20117;-75
2024/02/01 10:25:50;;;;;;;57.58;35.92;;;5.50;99.90;;;;;;5010104;28;20018;-74
2024/02/01 10:28:20;;;;;;;59.90;36.83;;;5.50;99.90;;;;;;5009429;28;20410;-75
2024/02/01 10:30:49;;;;;;;63.00;34.42;;;5.60;99.90;;;;;;4992154;28;20022;-76
2024/02/01 10:33:19;;;;;;;58.17;36.53;;;5.60;99.90;;;;;;4992179;28;20037;-75
2024/02/01 10:35:51;;;;;;;58.28;34.53;;;5.80;99.90;;;;;;4991936;28;20561;-75
2024/02/01 10:38:21;;;;;;;57.95;34.00;;;5.70;99.90;;;;;;5009998;28;20029;-75
2024/02/01 10:40:59;;;;;;;52.17;34.97;;;5.60;99.90;;;;;;4992293;28;20165;-76
2024/02/01 10:43:27;;;;;;;57.17;35.30;;;5.60;99.90;;;;;;4992144;28;20049;-75
2024/02/01 10:46:12;;;;;;;57.78;35.55;;;5.60;99.90;;;;;;4992498;28;20033;-75
2024/02/01 10:48:52;;;;;;;58.08;35.20;;;5.60;99.90;;;;;;5009860;28;20033;-75
2024/02/01 10:51:18;;;;;;;55.53;33.88;;;5.70;99.90;;;;;;5010108;28;20116;-74
2024/02/01 10:53:45;;;;;;;;;;;5.60;99.90;;;;;;4993223;28;20488;-75
2024/02/01 10:56:14;;;;;;;56.60;34.35;;;5.60;99.90;;;;;;4992251;28;20004;-76
2024/02/01 10:58:48;;;;;;;58.05;34.65;;;5.70;99.90;;;;;;4992394;28;20124;-75
2024/02/01 11:01:17;;;;;;;56.15;35.33;;;5.70;99.90;;;;;;4994478;28;20554;-76
2024/02/01 11:03:55;;;;;;;54.08;34.53;;;5.70;99.90;;;;;;4994798;28;20045;-74
2024/02/01 11:06:20;;;;;;;59.47;36.25;;;5.70;99.90;;;;;;5009917;28;20113;-75
2024/02/01 11:08:47;;;;;;;;;;;5.60;99.90;;;;;;5009802;28;20117;-76
2024/02/01 11:11:16;;;;;;;54.22;34.35;;;5.50;99.90;;;;;;5009373;28;20000;-75
2024/02/01 11:14:06;;;;;;;54.35;34.38;;;5.50;99.90;;;;;;5009331;28;20054;-75
2024/02/01 11:16:51;;;;;;;60.20;36.03;;;5.50;99.90;;;;;;4991785;28;20030;-75
2024/02/01 11:19:25;;;;;;;59.35;36.97;;;5.50;99.90;;;;;;4991977;28;20068;-75
2024/02/01 11:21:59;;;;;;;55.40;35.03;;;5.60;99.90;;;;;;4992152;28;20057;-74
2024/02/01 11:24:27;;;;;;;59.13;37.65;;;5.50;99.90;;;;;;4992509;28;20173;-75
2024/02/01 11:27:09;;;;;;;53.92;34.38;;;5.50;99.90;;;;;;5009990;28;20566;-75
2024/02/01 11:29:37;;;;;;;59.47;36.28;;;5.70;99.90;;;;;;4991601;28;20045;-75
2024/02/01 11:32:05;;;;;;;59.10;35.03;;;5.70;99.90;;;;;;4991549;28;20022;-75
2024/02/01 11:34:33;;;;;;;64.38;38.90;;;5.80;99.90;;;;;;4992066;28;20038;-75
2024/02/01 11:36:59;;;;;;;60.47;36.55;;;5.80;99.90;;;;;;5012877;28;20017;-76
2024/02/01 11:39:28;;;;;;;54.40;35.05;;;5.80;99.90;;;;;;5013131;28;20111;-75
2024/02/01 11:41:55;;;;;;;54.83;34.78;;;5.90;99.90;;;;;;5012702;28;20026;-75
2024/02/01 11:44:27;;;;;;;53.63;34.25;;;6.00;99.90;;;;;;4994891;28;20503;-75
2024/02/01 11:46:54;;;;;;;55.60;36.10;;;6.00;99.90;;;;;;4995102;28;20053;-75
2024/02/01 11:49:23;;;;;;;52.90;33.35;;;6.10;99.90;;;;;;5012285;28;20084;-75
2024/02/01 11:52:16;;;;;;;65.13;37.60;;;6.10;99.90;;;;;;5012471;28;20030;-75
2024/02/01 11:54:46;;;;;;;55.63;34.00;;;6.10;99.90;;;;;;4995011;28;20022;-75
2024/02/01 11:57:20;;;;;;;54.70;33.53;;;6.10;99.90;;;;;;5012166;28;20061;-75
2024/02/01 11:59:47;;;;;;;58.83;36.38;;;6.10;99.90;;;;;;4994522;28;20144;-73
2024/02/01 12:02:15;;;;;;;58.20;35.63;;;6.10;99.90;;;;;;5012320;28;20030;-75
2024/02/01 12:04:48;;;;;;;58.97;36.28;;;6.10;99.90;;;;;;4994497;28;20041;-75
2024/02/01 12:07:16;;;;;;;65.88;36.55;;;6.00;99.90;;;;;;5012416;28;20064;-75
2024/02/01 12:09:42;;;;;;;61.25;39.03;;;6.00;99.90;;;;;;4994537;28;20068;-75
2024/02/01 12:12:08;;;;;;;;;;;6.00;99.90;;;;;;4995174;28;20061;-75
2024/02/01 12:14:38;;;;;;;69.60;38.75;;;6.00;99.90;;;;;;4994701;28;19914;-75
2024/02/01 12:17:04;;;;;;;61.28;38.95;;;6.00;99.90;;;;;;4995117;28;20042;-75
2024/02/01 12:19:38;;;;;;;65.55;39.15;;;6.00;99.90;;;;;;5012599;28;20053;-75
2024/02/01 12:22:07;;;;;;;68.18;38.25;;;5.90;99.90;;;;;;5012525;28;20419;-75
2024/02/01 12:24:34;;;;;;;64.05;38.97;;;6.00;99.90;;;;;;5012728;28;20026;-74
2024/02/01 12:27:08;;;;;;;66.93;40.65;;;6.10;99.90;;;;;;5012387;28;20022;-76
2024/02/01 12:29:34;;;;;;;64.38;40.65;;;6.30;99.90;;;;;;5011910;28;20056;-75
2024/02/01 12:32:01;;;;;;;64.30;38.35;;;6.40;99.90;;;;;;5012085;28;20022;-75
2024/02/01 12:34:27;;;;;;;62.83;38.50;;;6.50;99.90;;;;;;5012203;28;20065;-75
2024/02/01 12:36:53;;;;;;;63.78;38.83;;;6.60;99.90;;;;;;4993906;28;20069;-75
2024/02/01 12:39:19;;;;;;;;;;;6.70;99.90;;;;;;4994229;28;20065;-76
2024/02/01 12:41:48;;;;;;;58.65;32.83;;;6.90;99.90;;;;;;4994453;28;19913;-75
2024/02/01 12:44:14;;;;;;;50.78;31.73;;;7.00;99.90;;;;;;4994458;28;20045;-75
2024/02/01 12:46:42;;;;;;;;;;;7.10;99.90;;;;;;5011313;28;20022;-75
2024/02/01 12:49:14;;;;;;;49.15;30.55;;;7.20;99.90;;;;;;5011533;28;19949;-75
2024/02/01 12:51:47;;;;;;;51.90;32.03;;;7.30;99.90;;;;;;5011914;28;20024;-74
2024/02/01 12:54:13;;;;;;;56.42;32.05;;;7.40;99.90;;;;;;4993912;28;20033;-76
2024/02/01 12:56:38;;;;;;;;;;;7.30;99.90;;;;;;4994698;28;20387;-75
2024/02/01 12:59:04;;;;;;;53.13;31.52;;;7.30;99.90;;;;;;5011498;28;19916;-75
2024/02/01 13:01:32;;;;;;;49.25;31.63;;;7.20;99.90;;;;;;4994060;28;20483;-75
2024/02/01 13:04:02;;;;;;;61.03;36.78;;;7.10;99.90;;;;;;4993774;28;20042;-75
2024/02/01 13:06:27;;;;;;;61.72;37.60;;;7.10;99.90;;;;;;5011973;28;20025;-75
2024/02/01 13:08:53;;;;;;;;;;;7.00;99.90;;;;;;4994435;28;20892;-75
2024/02/01 13:11:25;;;;;;;55.97;33.55;;;6.90;99.90;;;;;;5010355;28;19909;-75
2024/02/01 13:14:01;;;;;;;54.67;34.55;;;6.90;99.90;;;;;;5011340;28;20406;-76
2024/02/01 13:16:28;;;;;;;57.28;36.42;;;6.90;99.90;;;;;;4993843;28;20148;-74
2024/02/01 13:18:58;;;;;;;60.40;36.13;;;6.80;99.90;;;;;;5011664;28;20041;-76
2024/02/01 13:21:24;;;;;;;62.20;37.35;;;6.70;99.90;;;;;;4993999;28;20501;-75
2024/02/01 13:23:50;;;;;;;56.15;34.58;;;6.70;99.90;;;;;;5011394;28;20044;-75
2024/02/01 13:26:16;;;;;;;61.10;35.90;;;6.70;99.90;;;;;;4993778;28;20044;-75
2024/02/01 13:28:42;;;;;;;;;;;6.60;99.90;;;;;;5011844;28;20030;-75
2024/02/01 13:31:08;;;;;;;60.33;37.38;;;6.50;99.90;;;;;;4993396;28;19909;-76
2024/02/01 13:33:36;;;;;;;;;;;6.40;99.90;;;;;;4994312;28;20099;-76
2024/02/01 13:36:09;;;;;;;57.25;35.65;;;6.40;99.90;;;;;;4993055;28;19939;-75
2024/02/01 13:38:38;;;;;;;63.50;37.53;;;6.40;99.90;;;;;;4992762;28;20038;-75
2024/02/01 13:41:05;;;;;;;61.45;36.28;;;6.30;99.90;;;;;;5010343;28;20495;-75
2024/02/01 13:43:31;;;;;;;56.72;35.97;;;6.30;99.90;;;;;;5010095;28;20065;-75
2024/02/01 13:45:56;;;;;;;51.47;34.97;;;6.20;99.90;;;;;;5010284;28;20786;-75
2024/02/01 13:48:24;;;;;;;;;;;6.20;99.90;;;;;;4993108;28;20038;-75
2024/02/01 13:50:50;;;;;;;48.40;30.30;;;6.20;99.90;;;;;;4992610;28;20294;-75